Time;durP1;ratioP1;P1;durP2;ratioP2;P2;SDS_P1;SDS_P2;PMS_P1;PMS_P2;Temp;Humidity;BMP_temperature;BMP_pressure;BME280_temperature;BME280_humidity;BME280_pressure;Samples;Min_cycle;Max_cycle;Signal;HPM_P1;HPM_P2
2022/04/03 00:01:38;;;;;;;1.90;1.73;;;;;;;2.47;91.99;96142.38;5098999;28;20202;-68
2022/04/03 00:04:05;;;;;;;5.23;2.43;;;;;;;2.20;91.83;96143.06;5097405;28;20203;-68
2022/04/03 00:06:31;;;;;;;2.27;1.67;;;;;;;2.26;90.80;96140.75;5098187;28;20219;-69
2022/04/03 00:08:58;;;;;;;2.60;1.77;;;;;;;2.13;92.07;96142.75;5098258;28;20225;-68
2022/04/03 00:11:25;;;;;;;3.10;2.23;;;;;;;2.13;91.50;96137.56;5098143;28;21162;-70
2022/04/03 00:13:52;;;;;;;4.27;1.73;;;;;;;2.33;91.27;96143.66;5097279;28;20203;-69
2022/04/03 00:16:18;;;;;;;3.10;1.70;;;;;;;2.25;91.08;96140.91;5098080;28;20257;-68
2022/04/03 00:18:46;;;;;;;3.50;2.97;;;;;;;2.36;91.62;96146.03;5098878;28;20205;-68
2022/04/03 00:21:13;;;;;;;3.37;2.50;;;;;;;2.09;91.36;96145.75;5098228;28;20218;-70
2022/04/03 00:23:40;;;;;;;4.80;1.73;;;;;;;2.26;90.17;96150.34;5097435;28;20277;-68
2022/04/03 00:26:06;;;;;;;3.73;2.67;;;;;;;2.19;89.19;96147.44;5097481;28;20223;-70
2022/04/03 00:28:33;;;;;;;3.43;1.63;;;;;;;2.37;89.54;96150.25;5098251;28;20203;-68
2022/04/03 00:31:00;;;;;;;3.87;2.83;;;;;;;2.26;89.92;96150.34;5098028;28;20210;-69
2022/04/03 00:33:26;;;;;;;3.87;2.00;;;;;;;2.23;89.79;96153.19;5096812;28;20222;-68
2022/04/03 00:35:54;;;;;;;1.70;1.60;;;;;;;2.49;89.85;96144.84;5097831;28;20227;-68
2022/04/03 00:38:21;;;;;;;2.80;2.47;;;;;;;2.23;89.37;96153.19;5097676;28;20206;-69
2022/04/03 00:40:48;;;;;;;7.07;2.33;;;;;;;2.48;88.89;96153.59;5097622;28;20207;-70
2022/04/03 00:43:15;;;;;;;3.13;2.30;;;;;;;2.38;88.60;96157.09;5093610;28;20191;-68
2022/04/03 00:45:45;;;;;;;4.13;2.43;;;;;;;2.60;88.93;96148.16;5097531;28;20214;-69
2022/04/03 00:48:12;;;;;;;6.33;2.73;;;;;;;2.40;88.67;96149.03;5097203;28;20598;-68
2022/04/03 00:50:39;;;;;;;2.73;1.30;;;;;;;2.27;89.97;96152.00;5097672;28;20217;-68
2022/04/03 00:53:07;;;;;;;2.63;2.30;;;;;;;2.46;90.39;96145.91;5096679;28;20215;-68
2022/04/03 00:55:34;;;;;;;2.50;2.10;;;;;;;2.26;89.83;96158.16;5097100;28;20214;-68
2022/04/03 00:58:01;;;;;;;2.43;2.00;;;;;;;2.31;90.13;96155.97;5097263;28;21058;-68
2022/04/03 01:00:28;;;;;;;5.33;2.33;;;;;;;2.22;90.48;96151.56;5097222;28;21164;-69
2022/04/03 01:02:55;;;;;;;2.53;1.93;;;;;;;1.98;91.15;96148.41;5096319;28;20214;-70
2022/04/03 01:05:22;;;;;;;4.67;2.83;;;;;;;2.04;90.83;96150.50;5097410;28;20236;-70
2022/04/03 01:07:48;;;;;;;2.43;2.23;;;;;;;2.15;90.58;96150.41;5097002;28;20773;-70
2022/04/03 01:10:16;;;;;;;4.37;2.73;;;;;;;2.27;91.24;96155.41;5097387;28;20421;-69
2022/04/03 01:12:44;;;;;;;3.47;2.53;;;;;;;2.31;90.56;96155.97;5096477;28;20219;-68
2022/04/03 01:15:14;;;;;;;2.13;1.93;;;;;;;2.31;90.63;96155.97;5097140;28;20199;-70
2022/04/03 01:17:41;;;;;;;1.90;1.80;;;;;;;2.23;90.54;96154.03;5097363;28;20877;-68
2022/04/03 01:20:08;;;;;;;5.67;2.43;;;;;;;2.15;91.03;96155.59;5096309;28;20207;-70
2022/04/03 01:22:35;;;;;;;4.03;1.73;;;;;;;1.93;91.35;96155.75;5096637;28;20199;-69
2022/04/03 01:25:03;;;;;;;3.13;2.17;;;;;;;2.05;91.32;96152.13;5097226;28;20207;-68
2022/04/03 01:27:29;;;;;;;2.30;1.60;;;;;;;1.86;90.85;96159.81;5096471;28;20209;-69
2022/04/03 01:29:57;;;;;;;1.30;1.20;;;;;;;2.04;90.03;96161.72;5096627;28;20203;-71
2022/04/03 01:32:24;;;;;;;1.97;1.43;;;;;;;1.69;91.17;96162.97;5097222;28;20225;-70
2022/04/03 01:34:50;;;;;;;3.87;1.93;;;;;;;1.99;90.58;96163.06;5096444;28;20214;-68
2022/04/03 01:37:17;;;;;;;1.63;1.53;;;;;;;1.62;90.97;96164.44;5096364;28;20234;-69
2022/04/03 01:39:43;;;;;;;3.30;2.63;;;;;;;1.87;89.58;96166.66;5097052;28;20203;-68
2022/04/03 01:42:11;;;;;;;3.50;1.90;;;;;;;1.98;90.11;96158.78;5094579;28;20274;-70
2022/04/03 01:44:38;;;;;;;3.80;2.40;;;;;;;1.90;90.04;96166.41;5096106;28;20199;-69
2022/04/03 01:47:04;;;;;;;1.77;1.43;;;;;;;1.95;89.07;96161.66;5096612;28;20412;-70
2022/04/03 01:49:31;;;;;;;3.13;2.77;;;;;;;2.09;88.82;96163.94;5096633;28;20199;-68
2022/04/03 01:51:58;;;;;;;3.07;1.57;;;;;;;2.29;88.69;96165.69;5096178;28;20588;-69
2022/04/03 01:54:25;;;;;;;1.17;1.17;;;;;;;2.23;87.83;96163.56;5095673;28;21275;-69
2022/04/03 01:56:51;;;;;;;2.17;1.97;;;;;;;2.31;88.40;96172.41;5096107;28;20227;-68
2022/04/03 01:59:19;;;;;;;2.30;2.00;;;;;;;2.51;87.68;96167.16;5097506;28;20209;-70
2022/04/03 02:01:46;;;;;;;2.93;1.57;;;;;;;2.31;87.10;96168.97;5100553;28;20210;-70
2022/04/03 02:04:12;;;;;;;4.33;1.70;;;;;;;2.33;87.34;96175.69;5100137;28;20199;-70
2022/04/03 02:06:40;;;;;;;2.60;2.00;;;;;;;2.17;87.64;96172.72;5100782;28;20246;-69
2022/04/03 02:09:07;;;;;;;1.40;1.30;;;;;;;2.34;87.77;96176.50;5100137;28;20212;-68
2022/04/03 02:11:34;;;;;;;3.50;2.70;;;;;;;2.31;87.89;96181.97;5100457;28;20212;-68
2022/04/03 02:14:01;;;;;;;4.67;1.60;;;;;;;2.30;87.78;96180.31;5099733;28;20223;-69
2022/04/03 02:16:29;;;;;;;1.63;1.53;;;;;;;2.30;87.36;96178.53;5100316;28;20606;-70
2022/04/03 02:18:55;;;;;;;3.57;2.17;;;;;;;2.01;88.23;96180.16;5100115;28;20199;-69
2022/04/03 02:21:22;;;;;;;1.33;1.23;;;;;;;1.99;88.63;96178.63;5100360;28;20192;-68
2022/04/03 02:23:48;;;;;;;1.83;1.50;;;;;;;1.97;88.51;96173.56;5099600;28;20203;-69
2022/04/03 02:26:14;;;;;;;2.80;1.63;;;;;;;2.13;87.56;96188.72;5100116;28;20223;-68
2022/04/03 02:28:41;;;;;;;3.17;1.97;;;;;;;2.03;88.53;96175.66;5100090;28;20206;-68
2022/04/03 02:31:07;;;;;;;2.53;2.07;;;;;;;2.07;88.57;96182.22;5100620;28;20203;-69
2022/04/03 02:33:35;;;;;;;8.23;3.93;;;;;;;2.19;88.53;96183.00;5099248;28;20222;-68
2022/04/03 02:36:02;;;;;;;5.50;1.90;;;;;;;2.17;88.59;96188.31;5100034;28;20226;-70
2022/04/03 02:38:28;;;;;;;1.83;1.50;;;;;;;2.03;88.83;96193.03;5100100;28;20206;-69
2022/04/03 02:40:54;;;;;;;1.93;1.83;;;;;;;2.19;88.45;96189.03;5099606;28;20215;-68
2022/04/03 02:43:21;;;;;;;3.77;2.43;;;;;;;2.15;88.46;96195.44;5096416;28;20195;-68
2022/04/03 02:45:48;;;;;;;3.47;2.10;;;;;;;2.04;88.11;96195.50;5097999;28;20287;-69
2022/04/03 02:48:14;;;;;;;2.93;1.53;;;;;;;1.87;88.90;96206.44;5099346;28;20203;-69
2022/04/03 02:50:42;;;;;;;2.40;1.97;;;;;;;2.26;88.72;96200.53;5099301;28;20628;-70
2022/04/03 02:53:09;;;;;;;2.93;2.00;;;;;;;1.99;89.09;96205.44;5099421;28;20226;-68
2022/04/03 02:55:35;;;;;;;1.60;1.50;;;;;;;2.07;89.10;96204.81;5099966;28;20219;-69
2022/04/03 02:58:02;;;;;;;2.20;1.70;;;;;;;2.24;88.31;96202.47;5099397;28;20210;-68
2022/04/03 03:00:28;;;;;;;2.47;2.10;;;;;;;2.13;88.69;96201.72;5099951;28;20301;-69
2022/04/03 03:02:55;;;;;;;2.10;1.57;;;;;;;2.08;88.89;96202.06;5099101;28;20295;-69
2022/04/03 03:05:21;;;;;;;3.93;2.90;;;;;;;2.22;88.92;96203.53;5099267;28;20258;-70
2022/04/03 03:07:49;;;;;;;6.67;1.97;;;;;;;2.24;89.65;96209.41;5099438;28;20210;-69
2022/04/03 03:10:17;;;;;;;1.40;1.30;;;;;;;2.22;89.77;96208.75;5099239;28;20788;-69
2022/04/03 03:12:46;;;;;;;2.30;1.47;;;;;;;2.09;88.82;96208.13;5098732;28;20229;-68
2022/04/03 03:15:13;;;;;;;1.50;1.23;;;;;;;2.17;88.78;96206.50;5099068;28;20576;-68
2022/04/03 03:17:40;;;;;;;3.63;1.73;;;;;;;2.02;89.14;96201.75;5099679;28;20222;-70
2022/04/03 03:20:07;;;;;;;2.07;1.77;;;;;;;2.15;89.33;96205.84;5099157;28;20211;-68
2022/04/03 03:22:34;;;;;;;3.80;2.40;;;;;;;2.04;89.81;96205.06;5098196;28;20215;-68
2022/04/03 03:25:05;;;;;;;3.60;2.93;;;;;;;2.34;89.10;96205.13;5099283;28;20241;-70
2022/04/03 03:27:31;;;;;;;1.83;1.57;;;;;;;2.15;89.15;96213.63;5099551;28;20300;-69
2022/04/03 03:29:58;;;;;;;2.90;1.80;;;;;;;2.27;88.03;96211.78;5098801;28;20214;-68
2022/04/03 03:32:24;;;;;;;3.03;2.30;;;;;;;2.35;88.51;96207.56;5098332;28;20195;-67
2022/04/03 03:34:51;;;;;;;4.27;2.60;;;;;;;2.30;88.33;96212.34;5099088;28;20203;-69
2022/04/03 03:37:18;;;;;;;1.43;1.33;;;;;;;2.30;88.73;96212.34;5098986;28;20238;-69
2022/04/03 03:39:45;;;;;;;1.93;1.70;;;;;;;2.41;88.53;96207.88;5099017;28;20290;-69
2022/04/03 03:42:13;;;;;;;2.70;1.87;;;;;;;2.59;87.57;96214.13;5095687;28;20193;-69
2022/04/03 03:44:40;;;;;;;5.17;2.77;;;;;;;2.33;87.80;96213.84;5098540;28;20214;-69
2022/04/03 03:47:08;;;;;;;12.33;3.17;;;;;;;2.54;87.86;96215.50;5098601;28;21181;-70
2022/04/03 03:49:35;;;;;;;2.67;2.33;;;;;;;2.31;88.08;96223.56;5098461;28;20207;-68
2022/04/03 03:52:02;;;;;;;1.80;1.70;;;;;;;2.39;87.84;96219.38;5098740;28;20214;-69
2022/04/03 03:54:28;;;;;;;3.30;2.37;;;;;;;2.44;87.84;96218.06;5097775;28;20215;-69
2022/04/03 03:56:55;;;;;;;3.87;1.67;;;;;;;2.56;87.33;96224.81;5099175;28;20541;-68
2022/04/03 03:59:23;;;;;;;4.27;3.00;;;;;;;2.66;87.19;96223.09;5098561;28;20207;-69
2022/04/03 04:01:49;;;;;;;1.57;1.27;;;;;;;2.49;87.18;96225.44;5098117;28;20199;-68
2022/04/03 04:04:16;;;;;;;2.30;2.10;;;;;;;2.64;85.99;96227.59;5097492;28;20684;-68
2022/04/03 04:06:42;;;;;;;4.67;2.80;;;;;;;2.49;86.18;96228.84;5098866;28;20222;-70
2022/04/03 04:09:09;;;;;;;3.13;2.47;;;;;;;2.43;86.26;96229.41;5097691;28;20603;-70
2022/04/03 04:11:35;;;;;;;2.63;2.27;;;;;;;2.41;86.74;96226.09;5098160;28;20215;-69
2022/04/03 04:14:02;;;;;;;2.83;2.00;;;;;;;2.39;86.80;96231.56;5097859;28;20226;-68
2022/04/03 04:16:30;;;;;;;2.13;1.50;;;;;;;2.57;86.44;96234.25;5098037;28;20593;-69
2022/04/03 04:18:57;;;;;;;4.13;2.73;;;;;;;2.46;86.92;96238.72;5098331;28;20202;-68
2022/04/03 04:21:23;;;;;;;7.03;2.17;;;;;;;2.54;85.97;96236.28;5097691;28;20199;-68
2022/04/03 04:23:50;;;;;;;2.90;1.90;;;;;;;2.46;86.07;96239.53;5097279;28;20196;-68
2022/04/03 04:26:16;;;;;;;5.63;2.40;;;;;;;2.40;86.67;96239.22;5098090;28;20230;-69
2022/04/03 04:28:47;;;;;;;2.70;1.67;;;;;;;2.43;86.86;96238.94;5097845;28;20879;-69
2022/04/03 04:31:14;;;;;;;2.33;1.80;;;;;;;2.42;85.94;96248.53;5097653;28;20213;-70
2022/04/03 04:33:41;;;;;;;3.70;2.40;;;;;;;2.56;86.49;96237.81;5097070;28;20706;-68
2022/04/03 04:36:08;;;;;;;3.47;2.27;;;;;;;2.25;86.56;96244.88;5098067;28;20219;-68
2022/04/03 04:38:34;;;;;;;3.43;2.73;;;;;;;2.23;87.14;96249.34;5097825;28;20974;-68
2022/04/03 04:41:01;;;;;;;3.63;1.90;;;;;;;2.32;87.12;96261.59;5097226;28;20203;-68
2022/04/03 04:43:27;;;;;;;3.33;2.07;;;;;;;2.08;87.97;96254.06;5094372;28;20199;-70
2022/04/03 04:45:54;;;;;;;4.23;2.17;;;;;;;2.21;87.54;96259.88;5097683;28;20902;-68
2022/04/03 04:48:20;;;;;;;2.97;2.33;;;;;;;2.23;87.14;96257.16;5097494;28;20200;-68
2022/04/03 04:50:49;;;;;;;2.20;1.50;;;;;;;2.59;85.95;96265.34;5097552;28;21070;-71
2022/04/03 04:53:15;;;;;;;2.97;2.70;;;;;;;2.38;86.10;96261.09;5094617;28;20234;-69
2022/04/03 04:55:43;;;;;;;3.10;1.93;;;;;;;2.40;87.03;96259.22;5097223;28;20219;-70
2022/04/03 04:58:09;;;;;;;3.87;1.70;;;;;;;2.27;87.02;96271.56;5096815;28;20192;-68
2022/04/03 05:00:36;;;;;;;4.77;2.37;;;;;;;2.05;88.08;96274.25;5097439;28;20222;-68
2022/04/03 05:03:02;;;;;;;4.13;2.77;;;;;;;2.13;88.07;96274.47;5096340;28;20201;-69
2022/04/03 05:05:30;;;;;;;3.20;2.47;;;;;;;2.15;87.81;96268.22;5096480;28;20225;-68
2022/04/03 05:07:59;;;;;;;2.10;1.73;;;;;;;2.20;88.57;96283.41;5097848;28;20304;-69
2022/04/03 05:10:27;;;;;;;6.70;2.07;;;;;;;2.14;88.92;96274.34;5097801;28;20214;-70
2022/04/03 05:12:54;;;;;;;3.30;1.87;;;;;;;3.64;96.88;96276.03;5096839;28;20215;-70
2022/04/03 05:15:21;;;;;;;8.55;4.18;;;;;;;3.46;87.84;96269.78;5096919;28;20446;-70
2022/04/03 05:17:48;;;;;;;10.07;3.70;;;;;;;2.73;85.19;96284.03;5098339;28;20194;-69
2022/04/03 05:20:16;;;;;;;2.60;1.87;;;;;;;2.99;85.32;96277.44;5097699;28;20202;-68
2022/04/03 05:22:44;;;;;;;3.37;2.20;;;;;;;2.77;85.36;96277.63;5096816;28;20210;-68
2022/04/03 05:25:12;;;;;;;3.80;1.90;;;;;;;2.39;85.46;96281.75;5097076;28;20834;-69
2022/04/03 05:27:39;;;;;;;4.63;1.93;;;;;;;2.67;86.20;96279.38;5097200;28;20230;-69
2022/04/03 05:30:07;;;;;;;4.60;2.20;;;;;;;2.76;85.11;96285.56;5097503;28;20221;-69
2022/04/03 05:32:35;;;;;;;1.53;1.43;;;;;;;2.31;86.16;96286.78;5096987;28;20197;-69
2022/04/03 05:35:02;;;;;;;3.30;1.80;;;;;;;2.26;86.14;96283.72;5095420;28;20321;-69
2022/04/03 05:37:28;;;;;;;1.80;1.70;;;;;;;2.32;85.96;96296.22;5097279;28;20209;-68
2022/04/03 05:39:55;;;;;;;1.57;1.47;;;;;;;2.41;85.42;96295.47;5097177;28;20203;-69
2022/04/03 05:42:23;;;;;;;1.80;1.70;;;;;;;2.53;85.00;96300.50;5093425;28;20630;-69
2022/04/03 05:44:50;;;;;;;6.83;2.13;;;;;;;2.66;84.77;96293.31;5096249;28;20209;-69
2022/04/03 05:47:17;;;;;;;3.77;2.43;;;;;;;2.26;86.02;96307.13;5096849;28;20214;-69
2022/04/03 05:49:44;;;;;;;2.27;2.07;;;;;;;2.12;86.08;96304.00;5096191;28;20212;-69
2022/04/03 05:52:11;;;;;;;2.97;2.27;;;;;;;2.40;85.13;96309.41;5096338;28;20201;-69
2022/04/03 05:54:37;;;;;;;1.77;1.63;;;;;;;2.11;86.27;96310.16;5095680;28;20579;-69
2022/04/03 05:57:05;;;;;;;3.10;2.20;;;;;;;2.45;84.84;96318.47;5096101;28;20596;-70
2022/04/03 05:59:33;;;;;;;4.47;1.67;;;;;;;2.50;84.91;96318.94;5096076;28;20609;-68
2022/04/03 06:02:00;;;;;;;2.27;1.23;;;;;;;2.38;85.21;96328.69;5096278;28;20210;-69
2022/04/03 06:04:26;;;;;;;3.57;2.77;;;;;;;2.44;84.88;96321.22;5096536;28;20195;-68
2022/04/03 06:06:53;;;;;;;3.53;2.10;;;;;;;2.68;83.70;96320.00;5096972;28;20707;-68
2022/04/03 06:09:19;;;;;;;14.90;1.73;;;;;;;2.60;83.01;96327.63;5097680;28;20203;-69
2022/04/03 06:11:45;;;;;;;0.90;0.90;;;;;;;1.98;83.92;96327.69;5096917;28;20199;-68
2022/04/03 06:14:12;;;;;;;5.83;2.30;;;;;;;2.16;85.11;96331.41;5096316;28;20226;-68
2022/04/03 06:16:40;;;;;;;1.97;1.60;;;;;;;2.58;84.07;96329.56;5097829;28;20226;-68
2022/04/03 06:19:06;;;;;;;2.70;2.50;;;;;;;2.62;82.77;96336.16;5097043;28;20203;-68
2022/04/03 06:21:33;;;;;;;1.57;1.20;;;;;;;2.73;82.24;96338.66;5096963;28;21138;-68
2022/04/03 06:23:59;;;;;;;1.20;1.17;;;;;;;2.47;82.64;96345.19;5097998;28;20196;-69
2022/04/03 06:26:26;;;;;;;3.53;2.07;;;;;;;2.79;81.62;96345.13;5097825;28;20219;-68
2022/04/03 06:28:52;;;;;;;5.53;1.90;;;;;;;3.06;81.37;96339.28;5094874;28;20203;-68
2022/04/03 06:31:19;;;;;;;2.60;2.40;;;;;;;2.68;80.43;96342.59;5094376;28;20214;-68
2022/04/03 06:33:47;;;;;;;1.00;0.97;;;;;;;2.69;80.54;96347.69;5094917;28;20657;-68
2022/04/03 06:36:13;;;;;;;2.63;2.10;;;;;;;2.60;80.87;96350.22;5095425;28;20242;-68
2022/04/03 06:38:40;;;;;;;2.30;2.17;;;;;;;2.61;80.20;96347.50;5096210;28;20593;-68
2022/04/03 06:41:07;;;;;;;1.53;1.43;;;;;;;2.22;81.23;96349.09;5096006;28;20566;-68
2022/04/03 06:43:34;;;;;;;4.10;2.00;;;;;;;2.51;80.30;96351.00;5092730;28;20214;-68
2022/04/03 06:46:01;;;;;;;0.93;0.87;;;;;;;2.62;80.33;96354.34;5098042;28;20334;-68
2022/04/03 06:48:28;;;;;;;10.50;2.93;;;;;;;3.01;79.07;96354.44;5099785;28;20607;-68
2022/04/03 06:50:56;;;;;;;2.40;1.77;;;;;;;2.90;78.91;96361.50;5099330;28;20275;-67
2022/04/03 06:53:23;;;;;;;1.80;1.67;;;;;;;2.95;78.69;96356.75;5098351;28;20203;-68
2022/04/03 06:55:49;;;;;;;6.63;1.53;;;;;;;2.94;78.14;96364.69;5099173;28;20224;-69
2022/04/03 06:58:16;;;;;;;0.90;0.90;;;;;;;3.11;77.62;96363.13;5099649;28;20215;-69
2022/04/03 07:00:42;;;;;;;3.37;1.80;;;;;;;2.95;77.65;96374.13;5099394;28;20211;-69
2022/04/03 07:03:09;;;;;;;1.87;1.10;;;;;;;3.30;77.16;96370.22;5098928;28;20210;-69
2022/04/03 07:05:35;;;;;;;2.77;1.67;;;;;;;3.54;77.27;96366.34;5100127;28;20224;-68
2022/04/03 07:08:03;;;;;;;3.87;1.83;;;;;;;2.89;77.94;96378.09;5100118;28;21236;-68
2022/04/03 07:10:30;;;;;;;2.63;1.70;;;;;;;3.08;76.75;96373.81;5099868;28;20203;-68
2022/04/03 07:12:59;;;;;;;1.87;1.77;;;;;;;2.77;77.28;96376.47;5099379;28;20213;-68
2022/04/03 07:15:26;;;;;;;6.33;2.83;;;;;;;3.35;75.42;96376.69;5099729;28;20234;-68
2022/04/03 07:17:52;;;;;;;2.30;1.73;;;;;;;2.77;76.72;96388.69;5099288;28;20214;-68
2022/04/03 07:20:19;;;;;;;3.00;1.87;;;;;;;2.67;77.20;96393.81;5099341;28;20206;-68
2022/04/03 07:22:45;;;;;;;2.03;1.83;;;;;;;2.82;77.46;96389.94;5098710;28;20694;-69
2022/04/03 07:25:14;;;;;;;2.47;1.40;;;;;;;3.00;77.29;96388.41;5099562;28;20195;-68
2022/04/03 07:27:41;;;;;;;1.90;1.70;;;;;;;3.64;75.96;96394.09;5100206;28;20840;-69
2022/04/03 07:30:09;;;;;;;2.23;2.03;;;;;;;4.15;74.86;96389.59;5099693;28;20205;-68
2022/04/03 07:32:37;;;;;;;3.63;1.93;;;;;;;4.29;73.13;96386.59;5098478;28;20222;-69
2022/04/03 07:35:04;;;;;;;4.03;2.77;;;;;;;4.11;72.80;96396.03;5099497;28;20230;-68
2022/04/03 07:37:30;;;;;;;0.77;0.77;;;;;;;4.22;72.74;96401.91;5100622;28;20280;-67
2022/04/03 07:39:57;;;;;;;1.93;1.40;;;;;;;4.56;72.00;96394.56;5099122;28;20213;-67
2022/04/03 07:42:25;;;;;;;3.03;1.90;;;;;;;4.50;71.80;96405.53;5097031;28;20195;-69
2022/04/03 07:44:52;;;;;;;2.23;1.40;;;;;;;4.14;73.20;96407.94;5099671;28;20203;-68
2022/04/03 07:47:19;;;;;;;3.13;1.77;;;;;;;4.45;71.61;96412.94;5099506;28;20245;-69
2022/04/03 07:49:45;;;;;;;1.50;1.40;;;;;;;3.92;70.98;96424.66;5099041;28;20199;-68
2022/04/03 07:52:12;;;;;;;4.10;2.10;;;;;;;4.13;71.64;96425.38;5099340;28;20196;-68
2022/04/03 07:54:39;;;;;;;4.43;2.27;;;;;;;3.90;72.68;96420.53;5098858;28;20255;-67
2022/04/03 07:57:07;;;;;;;2.10;1.90;;;;;;;4.34;71.06;96426.09;5097952;28;20223;-68
2022/04/03 07:59:35;;;;;;;2.00;1.53;;;;;;;4.32;70.94;96430.66;5099098;28;20234;-68
2022/04/03 08:02:01;;;;;;;3.23;1.57;;;;;;;4.27;70.62;96430.22;5099547;28;20199;-68
2022/04/03 08:04:28;;;;;;;3.60;1.30;;;;;;;4.49;71.06;96435.19;5098603;28;20203;-68
2022/04/03 08:06:54;;;;;;;1.30;1.17;;;;;;;4.61;69.87;96437.56;5099296;28;20222;-68
2022/04/03 08:09:21;;;;;;;1.90;1.53;;;;;;;4.78;69.14;96436.06;5099975;28;20202;-68
2022/04/03 08:11:48;;;;;;;1.57;1.20;;;;;;;4.31;70.01;96445.44;5098833;28;20204;-69
2022/04/03 08:14:14;;;;;;;2.17;1.50;;;;;;;5.07;69.40;96448.13;5099118;28;20230;-70
2022/04/03 08:16:42;;;;;;;2.70;1.27;;;;;;;5.33;69.94;96444.78;5100425;28;20229;-68
2022/04/03 08:19:09;;;;;;;3.77;1.70;;;;;;;5.19;68.53;96447.81;5099460;28;20310;-70
2022/04/03 08:21:35;;;;;;;3.37;1.90;;;;;;;5.47;66.82;96452.19;5098832;28;20667;-69
2022/04/03 08:24:02;;;;;;;1.70;1.40;;;;;;;5.84;67.32;96450.47;5098643;28;20214;-69
2022/04/03 08:26:28;;;;;;;3.87;1.47;;;;;;;5.84;66.46;96445.22;5098739;28;20226;-69
2022/04/03 08:28:55;;;;;;;4.73;1.80;;;;;;;5.63;67.32;96458.47;5097244;28;20202;-69
2022/04/03 08:31:23;;;;;;;3.20;1.80;;;;;;;5.64;66.69;96448.88;5097769;28;20203;-69
2022/04/03 08:33:51;;;;;;;2.53;1.83;;;;;;;5.60;65.43;96453.53;5096969;28;20204;-70
2022/04/03 08:36:18;;;;;;;2.90;1.00;;;;;;;4.94;65.26;96450.22;5097715;28;20696;-69
2022/04/03 08:38:45;;;;;;;1.30;0.97;;;;;;;5.05;64.97;96460.50;5098390;28;20918;-68
2022/04/03 08:41:11;;;;;;;1.23;1.00;;;;;;;4.82;66.58;96456.50;5097676;28;20211;-68
2022/04/03 08:43:40;;;;;;;1.57;1.27;;;;;;;5.11;66.73;96459.94;5095605;28;20789;-68
2022/04/03 08:46:08;;;;;;;1.67;1.23;;;;;;;5.41;64.01;96463.22;5097215;28;20648;-68
2022/04/03 08:48:35;;;;;;;1.37;1.10;;;;;;;5.30;63.85;96460.75;5098766;28;20203;-68
2022/04/03 08:51:05;;;;;;;1.53;1.43;;;;;;;5.77;62.49;96459.84;5097295;28;20199;-69
2022/04/03 08:53:33;;;;;;;1.80;1.13;;;;;;;5.13;63.32;96458.84;5096145;28;20195;-68
2022/04/03 08:56:00;;;;;;;2.77;1.60;;;;;;;5.82;62.33;96468.09;5097723;28;20234;-69
2022/04/03 08:58:27;;;;;;;2.17;1.20;;;;;;;5.30;62.86;96465.16;5098462;28;20234;-68
2022/04/03 09:00:53;;;;;;;2.03;1.37;;;;;;;5.62;60.81;96464.66;5095768;28;20222;-68
2022/04/03 09:03:20;;;;;;;1.00;0.97;;;;;;;5.58;61.21;96471.13;5096526;28;20904;-68
2022/04/03 09:05:46;;;;;;;2.50;1.23;;;;;;;4.73;63.13;96478.22;5097146;28;20226;-69
2022/04/03 09:08:14;;;;;;;1.60;0.87;;;;;;;5.04;66.42;96475.34;5096948;28;20195;-69
2022/04/03 09:10:41;;;;;;;2.90;1.53;;;;;;;5.48;62.81;96474.75;5098885;28;20199;-69
2022/04/03 09:13:08;;;;;;;1.40;1.30;;;;;;;4.99;60.43;96477.53;5095242;28;20616;-69
2022/04/03 09:15:35;;;;;;;2.37;1.27;;;;;;;5.72;60.80;96477.72;5096117;28;20711;-68
2022/04/03 09:18:03;;;;;;;1.03;1.00;;;;;;;5.97;59.94;96479.72;5096085;28;20210;-70
2022/04/03 09:20:31;;;;;;;2.43;1.27;;;;;;;5.66;59.99;96484.31;5096484;28;20229;-69
2022/04/03 09:23:00;;;;;;;2.73;1.77;;;;;;;5.75;60.47;96482.66;5095837;28;20214;-69
2022/04/03 09:25:31;;;;;;;1.97;1.40;;;;;;;5.63;59.24;96478.56;5096037;28;20219;-68
2022/04/03 09:27:59;;;;;;;1.33;1.20;;;;;;;5.23;58.41;96477.97;5096377;28;20209;-69
2022/04/03 09:30:31;;;;;;;4.10;2.27;;;;;;;5.78;58.14;96477.16;5096323;28;20724;-68
2022/04/03 09:32:59;;;;;;;1.70;1.27;;;;;;;4.73;59.61;96482.63;5094936;28;20663;-68
2022/04/03 09:35:27;;;;;;;1.97;1.30;;;;;;;5.83;59.72;96480.19;5096273;28;20223;-68
2022/04/03 09:38:14;;;;;;;2.93;1.43;;;;;;;6.31;56.68;96482.50;5095865;28;20199;-68
2022/04/03 09:40:45;;;;;;;4.87;1.20;;;;;;;5.43;57.56;96487.41;5095427;28;20199;-68
2022/04/03 09:43:19;;;;;;;1.53;1.10;;;;;;;5.66;56.10;96484.31;5093503;28;20562;-68
2022/04/03 09:45:48;;;;;;;3.43;1.73;;;;;;;6.41;56.02;96483.25;5095557;28;20218;-67
2022/04/03 09:48:24;;;;;;;1.80;1.13;;;;;;;6.30;54.71;96482.59;5096329;28;20302;-68
2022/04/03 09:50:56;;;;;;;0.50;0.50;;;;;;;6.37;52.25;96475.84;5095447;28;20203;-67
2022/04/03 09:53:23;;;;;;;1.57;1.03;;;;;;;6.22;54.66;96472.06;5095370;28;20198;-68
2022/04/03 09:55:51;;;;;;;5.33;1.47;;;;;;;6.48;50.84;96486.94;5095433;28;20236;-67
2022/04/03 09:58:17;;;;;;;2.70;1.43;;;;;;;7.12;54.00;96467.47;5095978;28;20195;-67
2022/04/03 10:00:44;;;;;;;2.07;1.33;;;;;;;7.33;53.62;96476.66;5095906;28;20214;-68
2022/04/03 10:03:13;;;;;;;2.13;0.77;;;;;;;6.89;53.79;96474.13;5094732;28;20199;-68
2022/04/03 10:05:41;;;;;;;1.03;0.90;;;;;;;7.36;53.89;96468.47;5095921;28;20226;-67
2022/04/03 10:08:08;;;;;;;1.33;1.20;;;;;;;6.80;55.32;96474.19;5094605;28;20663;-67
2022/04/03 10:10:36;;;;;;;2.67;1.23;;;;;;;7.94;48.20;96467.75;5095367;28;20667;-68
2022/04/03 10:13:05;;;;;;;1.60;0.80;;;;;;;7.25;51.35;96469.72;5094058;28;20219;-67
2022/04/03 10:15:31;;;;;;;1.33;0.93;;;;;;;7.66;49.69;96470.69;5095988;28;20223;-68
2022/04/03 10:17:58;;;;;;;2.00;1.23;;;;;;;6.75;49.47;96469.38;5094759;28;20203;-67
2022/04/03 10:20:28;;;;;;;2.60;1.20;;;;;;;7.61;47.97;96465.09;5096995;28;20199;-68
2022/04/03 10:22:58;;;;;;;1.20;1.10;;;;;;;8.52;48.12;96456.38;5099390;28;20502;-68
2022/04/03 10:25:28;;;;;;;1.70;1.03;;;;;;;8.06;49.90;96468.31;5099501;28;20219;-68
2022/04/03 10:27:57;;;;;;;2.43;1.20;;;;;;;8.14;49.35;96465.75;5099557;28;20576;-68
2022/04/03 10:30:36;;;;;;;1.23;1.10;;;;;;;7.78;50.45;96458.97;5099493;28;20199;-68
2022/04/03 10:33:03;;;;;;;3.33;2.30;;;;;;;7.83;49.95;96459.31;5099119;28;20211;-68
2022/04/03 10:35:29;;;;;;;1.30;1.00;;;;;;;9.71;48.02;96448.63;5099941;28;20575;-68
2022/04/03 10:38:01;;;;;;;1.07;0.93;;;;;;;9.33;46.37;96452.91;5099406;28;20199;-68
2022/04/03 10:40:31;;;;;;;4.37;1.10;;;;;;;8.61;48.77;96450.19;5099491;28;20203;-68
2022/04/03 10:43:01;;;;;;;1.57;0.97;;;;;;;7.56;48.62;96463.88;5095796;28;20211;-67
2022/04/03 10:45:29;;;;;;;0.77;0.57;;;;;;;7.04;49.62;96458.69;5099676;28;20330;-67
2022/04/03 10:48:26;;;;;;;0.70;0.70;;;;;;;6.35;49.21;96467.31;5099606;28;20203;-67
2022/04/03 10:51:11;;;;;;;0.97;0.97;;;;;;;7.72;46.81;96464.81;5099269;28;20202;-68
2022/04/03 10:53:39;;;;;;;2.23;1.27;;;;;;;7.26;49.60;96459.06;5098578;28;20199;-68
2022/04/03 10:56:11;;;;;;;1.43;0.83;;;;;;;7.85;46.52;96453.91;5099270;28;20238;-67
2022/04/03 10:58:42;;;;;;;3.60;1.30;;;;;;;9.80;44.39;96457.31;5098787;28;20203;-67
2022/04/03 11:01:12;;;;;;;0.93;0.87;;;;;;;8.17;44.19;96453.16;5099390;28;20207;-68
2022/04/03 11:03:40;;;;;;;1.30;0.77;;;;;;;7.34;46.81;96459.97;5097854;28;20219;-67
2022/04/03 11:06:20;;;;;;;0.83;0.83;;;;;;;7.26;44.32;96453.00;5098084;28;20226;-67
2022/04/03 11:08:59;;;;;;;2.53;1.10;;;;;;;6.67;47.67;96463.28;5098519;28;20215;-68
2022/04/03 11:11:40;;;;;;;2.60;0.90;;;;;;;6.31;49.37;96471.19;5097694;28;20473;-67
2022/04/03 11:14:08;;;;;;;1.80;1.33;;;;;;;5.98;48.96;96463.88;5097180;28;20214;-67
2022/04/03 11:16:51;;;;;;;1.07;0.83;;;;;;;6.77;49.51;96462.22;5097842;28;20308;-68
2022/04/03 11:19:42;;;;;;;1.13;1.00;;;;;;;5.63;54.48;96462.91;5098383;28;20195;-68
2022/04/03 11:22:10;;;;;;;0.80;0.80;;;;;;;5.20;51.66;96459.94;5098066;28;20206;-67
2022/04/03 11:24:38;;;;;;;0.67;0.67;;;;;;;5.30;53.19;96460.75;5097653;28;20690;-68
2022/04/03 11:27:06;;;;;;;0.63;0.50;;;;;;;5.14;54.52;96465.72;5098849;28;20222;-67
2022/04/03 11:29:33;;;;;;;2.97;1.90;;;;;;;5.83;55.21;96464.50;5097844;28;20207;-67
2022/04/03 11:32:02;;;;;;;1.00;1.00;;;;;;;5.78;55.25;96469.31;5096568;28;20668;-68
2022/04/03 11:34:30;;;;;;;1.67;1.53;;;;;;;5.98;53.22;96473.53;5098022;28;20581;-68
2022/04/03 11:36:59;;;;;;;1.97;0.83;;;;;;;5.98;52.63;96465.69;5098095;28;20779;-68
2022/04/03 11:39:32;;;;;;;1.93;1.07;;;;;;;5.75;51.43;96470.44;5097524;28;20571;-67
2022/04/03 11:42:02;;;;;;;0.80;0.80;;;;;;;5.42;53.93;96469.25;5095251;28;20211;-67
2022/04/03 11:44:29;;;;;;;1.63;1.30;;;;;;;5.61;55.27;96467.44;5098190;28;20196;-68